Time;durP1;ratioP1;P1;durP2;ratioP2;P2;SDS_P1;SDS_P2;PMS_P1;PMS_P2;Temp;Humidity;BMP_temperature;BMP_pressure;BME280_temperature;BME280_humidity;BME280_pressure;Samples;Min_cycle;Max_cycle;Signal;HPM_P1;HPM_P2
2022/09/14 00:01:09;;;;;;;10.18;6.87;;;;;;;10.34;100.00;98623.97;1805708;78;20951;-73
2022/09/14 00:03:36;;;;;;;8.00;6.08;;;;;;;10.34;100.00;98619.29;1783824;78;20934;-72
2022/09/14 00:06:09;;;;;;;9.78;6.40;;;;;;;10.36;100.00;98625.81;1799757;79;20960;-73
2022/09/14 00:08:37;;;;;;;11.30;7.62;;;;;;;10.36;100.00;98625.24;1809864;79;20955;-73
2022/09/14 00:11:08;;;;;;;14.53;7.17;;;;;;;10.36;100.00;98625.24;1812438;78;21676;-73
2022/09/14 00:13:35;;;;;;;11.88;7.92;;;;;;;10.37;100.00;98626.84;1800163;78;21511;-71
2022/09/14 00:16:07;;;;;;;9.60;7.40;;;;;;;10.38;100.00;98627.66;1798779;78;21047;-71
2022/09/14 00:18:35;;;;;;;12.98;7.87;;;;;;;10.37;100.00;98632.34;1807752;78;20979;-73
2022/09/14 00:21:03;;;;;;;9.23;7.62;;;;;;;10.37;100.00;98627.42;1802988;79;20928;-73
2022/09/14 00:23:30;;;;;;;15.15;7.30;;;;;;;10.36;100.00;98630.73;1803595;78;21084;-73
2022/09/14 00:26:03;;;;;;;7.75;6.87;;;;;;;10.36;100.00;98629.92;1810327;79;21514;-73
2022/09/14 00:28:30;;;;;;;10.13;7.00;;;;;;;10.37;100.00;98626.05;1805614;78;21087;-73
2022/09/14 00:30:56;;;;;;;11.83;7.95;;;;;;;10.36;100.00;98627.19;1799839;78;21074;-72
2022/09/14 00:33:23;;;;;;;8.53;7.10;;;;;;;10.36;100.00;98625.81;1798903;79;21507;-72
2022/09/14 00:35:50;;;;;;;8.33;7.15;;;;;;;10.36;100.00;98625.24;1792399;78;21152;-72
2022/09/14 00:38:16;;;;;;;12.98;6.90;;;;;;;10.35;100.00;98623.64;1806921;78;21399;-71
2022/09/14 00:40:43;;;;;;;10.25;6.95;;;;;;;10.36;100.00;98622.50;1811658;78;20923;-72
2022/09/14 00:43:13;;;;;;;17.07;7.05;;;;;;;10.36;100.00;98623.88;1805510;78;20888;-72
2022/09/14 00:45:40;;;;;;;8.08;5.58;;;;;;;10.36;100.00;98624.44;1799446;78;20944;-72
2022/09/14 00:48:07;;;;;;;7.97;6.83;;;;;;;10.35;100.00;98611.86;1800501;79;21523;-73
2022/09/14 00:50:34;;;;;;;9.33;7.15;;;;;;;10.34;100.00;98619.86;1810443;78;20829;-72
2022/09/14 00:53:00;;;;;;;7.42;6.03;;;;;;;10.34;100.00;98619.29;1795054;78;20955;-72
2022/09/14 00:55:27;;;;;;;9.03;7.05;;;;;;;10.34;100.00;98612.44;1800414;79;21133;-72
2022/09/14 00:57:54;;;;;;;12.80;6.62;;;;;;;10.36;100.00;98614.84;1800982;78;20963;-72
2022/09/14 01:00:24;;;;;;;12.00;6.37;;;;;;;10.37;100.00;98623.30;1804179;78;21096;-72
2022/09/14 01:02:51;;;;;;;10.00;6.50;;;;;;;10.37;100.00;98615.88;1805371;78;20896;-72
2022/09/14 01:05:18;;;;;;;6.95;5.58;;;;;;;10.38;100.00;98611.99;1790165;79;20892;-72
2022/09/14 01:08:09;;;;;;;6.92;5.47;;;;;;;10.39;100.00;98612.22;1803965;78;21613;-72
2022/09/14 01:10:44;;;;;;;8.50;5.28;;;;;;;10.39;100.00;98614.16;1795258;78;21020;-72
2022/09/14 01:13:28;;;;;;;8.70;6.17;;;;;;;10.38;100.00;98609.25;1798367;79;21119;-72
2022/09/14 01:16:13;;;;;;;11.88;6.12;;;;;;;10.38;100.00;98612.56;1807401;78;20951;-72
2022/09/14 01:18:45;;;;;;;13.05;6.05;;;;;;;10.38;100.00;98618.05;1768480;78;20936;-72
2022/09/14 01:21:22;;;;;;;10.40;5.57;;;;;;;10.38;100.00;98616.67;1812052;78;20944;-72
2022/09/14 01:24:13;;;;;;;6.55;5.35;;;;;;;10.39;100.00;98618.28;1809939;79;21447;-72
2022/09/14 01:27:06;;;;;;;6.83;5.10;;;;;;;10.40;100.00;98612.42;1804921;79;21387;-73
2022/09/14 01:29:35;;;;;;;;;;;;;;;10.41;100.00;98615.97;1797095;78;21388;-72
2022/09/14 01:32:28;;;;;;;6.28;4.95;;;;;;;10.42;100.00;98621.13;1785398;79;20103;-72
2022/09/14 01:35:30;;;;;;;6.67;4.87;;;;;;;10.41;100.00;98609.91;1803290;78;20927;-72
2022/09/14 01:38:08;;;;;;;11.38;6.20;;;;;;;10.41;100.00;98610.48;1799766;79;36084;-72
2022/09/14 01:40:40;;;;;;;5.15;4.03;;;;;;;10.40;100.00;98609.69;1799765;78;21149;-72
2022/09/14 01:43:21;;;;;;;9.45;5.37;;;;;;;10.41;100.00;98602.25;1810915;79;20919;-72
2022/09/14 01:45:51;;;;;;;6.42;5.35;;;;;;;10.41;100.00;98597.56;1797893;78;21086;-72
2022/09/14 01:48:23;;;;;;;7.65;5.47;;;;;;;10.40;100.00;98597.34;1797285;79;20911;-72
2022/09/14 01:50:52;;;;;;;6.03;5.42;;;;;;;10.41;100.00;98596.20;1808688;79;20983;-72
2022/09/14 01:53:46;;;;;;;7.65;5.87;;;;;;;10.40;100.00;98598.70;1804077;78;21774;-72
2022/09/14 01:56:23;;;;;;;6.17;5.10;;;;;;;10.39;100.00;98592.22;1799640;78;20941;-72
2022/09/14 01:59:10;;;;;;;7.70;5.17;;;;;;;10.39;100.00;98586.73;1808926;78;20931;-72
2022/09/14 02:01:42;;;;;;;11.28;4.70;;;;;;;10.37;100.00;98589.01;1804391;78;20971;-73
2022/09/14 02:04:12;;;;;;;7.33;5.23;;;;;;;10.36;100.00;98583.29;1801100;79;20945;-73
2022/09/14 02:06:43;;;;;;;9.63;6.10;;;;;;;10.35;100.00;98583.06;1806586;78;21405;-73
2022/09/14 02:09:12;;;;;;;6.20;4.55;;;;;;;10.34;100.00;98581.45;1801578;78;20956;-72
2022/09/14 02:11:40;;;;;;;6.70;5.35;;;;;;;10.32;100.00;98584.53;1805064;79;21011;-73
2022/09/14 02:14:07;;;;;;;11.33;4.85;;;;;;;10.30;100.00;98581.89;1783899;78;20939;-73
2022/09/14 02:16:34;;;;;;;6.08;4.50;;;;;;;10.25;100.00;98578.22;1809739;79;20946;-71
2022/09/14 02:19:01;;;;;;;9.25;4.55;;;;;;;10.25;100.00;98584.27;1784774;79;21099;-70
2022/09/14 02:21:30;;;;;;;9.05;5.17;;;;;;;10.23;100.00;98579.12;1808803;78;20995;-70
2022/09/14 02:23:58;;;;;;;7.58;4.75;;;;;;;10.22;100.00;98580.27;1787121;78;20968;-71
2022/09/14 02:26:25;;;;;;;10.30;5.05;;;;;;;10.23;100.00;98583.81;1807018;78;21007;-75
2022/09/14 02:28:55;;;;;;;10.65;5.65;;;;;;;10.22;100.00;98580.83;1807838;78;20979;-75
2022/09/14 02:31:30;;;;;;;7.17;4.65;;;;;;;10.20;100.00;98573.51;1810147;78;21764;-73
2022/09/14 02:34:21;;;;;;;7.05;5.17;;;;;;;10.19;100.00;98575.98;1793767;77;20828;-73
2022/09/14 02:37:08;;;;;;;12.07;5.17;;;;;;;10.18;100.00;98575.75;1795365;79;20975;-73
2022/09/14 02:39:53;;;;;;;8.35;4.78;;;;;;;10.15;100.00;98574.48;1763541;79;21073;-73
2022/09/14 02:42:40;;;;;;;5.20;4.53;;;;;;;10.13;100.00;98571.84;1794934;79;21498;-73
2022/09/14 02:45:57;;;;;;;12.05;5.03;;;;;;;10.09;100.00;98562.12;1797772;79;21116;-73
2022/09/14 02:48:30;;;;;;;11.10;5.17;;;;;;;10.05;100.00;98563.92;1812538;77;20872;-73
2022/09/14 02:51:18;;;;;;;19.27;5.28;;;;;;;10.00;100.00;98572.92;1803752;77;20972;-74
2022/09/14 02:54:11;;;;;;;7.55;5.08;;;;;;;9.93;100.00;98572.89;1816105;77;20962;-73
2022/09/14 02:56:39;;;;;;;8.78;4.90;;;;;;;9.84;100.00;98566.67;1819967;77;21034;-74
2022/09/14 02:59:05;;;;;;;6.17;5.05;;;;;;;9.75;100.00;98563.23;1815997;77;21186;-73
2022/09/14 03:01:34;;;;;;;8.05;5.35;;;;;;;9.69;100.00;98568.67;1821538;77;20990;-73
2022/09/14 03:04:01;;;;;;;7.78;5.33;;;;;;;9.62;100.00;98564.28;1790363;79;20935;-73
2022/09/14 03:06:28;;;;;;;8.95;5.22;;;;;;;9.56;100.00;98566.98;1830163;77;20906;-73
2022/09/14 03:08:55;;;;;;;16.32;5.47;;;;;;;9.51;100.00;98565.80;1819264;77;21577;-73
2022/09/14 03:11:22;;;;;;;8.20;5.17;;;;;;;9.46;100.00;98563.27;1833200;77;21074;-73
2022/09/14 03:13:49;;;;;;;10.82;5.58;;;;;;;9.42;100.00;98559.58;1830109;77;20904;-72
2022/09/14 03:16:16;;;;;;;6.72;4.37;;;;;;;9.39;100.00;98555.56;1821676;77;20958;-72
2022/09/14 03:18:44;;;;;;;7.65;5.00;;;;;;;9.38;100.00;98561.37;1829171;77;21430;-73
2022/09/14 03:21:13;;;;;;;7.65;5.37;;;;;;;9.38;100.00;98558.64;1816493;77;20979;-73
2022/09/14 03:23:46;;;;;;;6.00;5.03;;;;;;;9.36;100.00;98548.58;1815960;77;21216;-72
2022/09/14 03:26:18;;;;;;;6.47;5.25;;;;;;;9.36;100.00;98558.16;1825354;77;20953;-72
2022/09/14 03:28:50;;;;;;;9.55;5.25;;;;;;;9.34;100.00;98552.22;1834886;77;21188;-73
2022/09/14 03:31:17;;;;;;;15.25;5.47;;;;;;;9.33;100.00;98549.24;1819349;77;21061;-71
2022/09/14 03:33:43;;;;;;;10.55;5.45;;;;;;;9.30;100.00;98557.55;1834271;77;20971;-74
2022/09/14 03:36:13;;;;;;;7.15;5.20;;;;;;;9.26;100.00;98553.30;1838615;77;21584;-74
2022/09/14 03:38:45;;;;;;;8.48;5.85;;;;;;;9.22;100.00;98545.55;1821199;77;20968;-73
2022/09/14 03:41:11;;;;;;;7.72;5.67;;;;;;;9.18;100.00;98552.81;1817192;77;20872;-77
2022/09/14 03:43:39;;;;;;;9.23;5.78;;;;;;;9.16;100.00;98547.43;1840852;77;20952;-80
2022/09/14 03:46:07;;;;;;;9.85;5.22;;;;;;;9.12;100.00;98543.75;1824112;77;21492;-72
2022/09/14 03:48:34;;;;;;;8.83;5.78;;;;;;;9.08;100.00;98547.70;1830842;77;20999;-70
2022/09/14 03:51:04;;;;;;;13.60;5.75;;;;;;;9.04;100.00;98549.50;1844668;76;20960;-71
2022/09/14 03:53:31;;;;;;;10.32;6.03;;;;;;;9.05;100.00;98552.47;1838450;77;20966;-73
2022/09/14 03:55:58;;;;;;;10.32;6.35;;;;;;;9.04;100.00;98559.08;1828279;77;20959;-71
2022/09/14 03:58:25;;;;;;;8.25;6.22;;;;;;;9.03;100.00;98563.52;1830355;76;20958;-71
2022/09/14 04:00:52;;;;;;;17.67;6.35;;;;;;;9.01;100.00;98558.38;1832869;76;21136;-74
2022/09/14 04:03:18;;;;;;;15.53;6.35;;;;;;;9.01;100.00;98558.38;1833959;77;20865;-72
2022/09/14 04:05:55;;;;;;;13.38;6.42;;;;;;;9.02;100.00;98568.19;1834094;77;20892;-71
2022/09/14 04:08:22;;;;;;;10.63;6.28;;;;;;;9.02;100.00;98568.19;1835308;77;21579;-77
2022/09/14 04:10:49;;;;;;;9.20;6.20;;;;;;;9.03;100.00;98567.05;1819731;76;21026;-85
2022/09/14 04:13:16;;;;;;;8.65;5.85;;;;;;;9.05;100.00;98563.99;1843523;77;21678;-85
2022/09/14 04:15:42;;;;;;;8.35;6.33;;;;;;;9.06;100.00;98565.03;1837121;76;21023;-83
2022/09/14 04:18:09;;;;;;;12.45;6.30;;;;;;;9.08;100.00;98572.91;1832470;77;20976;-84
2022/09/14 04:20:37;;;;;;;8.83;5.75;;;;;;;9.09;100.00;98571.22;1829750;77;20874;-78
2022/09/14 04:23:04;;;;;;;8.00;5.85;;;;;;;9.09;100.00;98572.59;1830291;77;20977;-79
2022/09/14 04:25:31;;;;;;;10.03;6.78;;;;;;;9.07;100.00;98576.22;1830633;77;21286;-75
2022/09/14 04:27:59;;;;;;;8.18;6.62;;;;;;;9.05;100.00;98576.31;1828133;77;20870;-83
2022/09/14 04:30:26;;;;;;;7.95;6.17;;;;;;;9.03;100.00;98575.27;1832932;77;20937;-76
2022/09/14 04:32:53;;;;;;;8.78;6.35;;;;;;;9.02;100.00;98579.14;1833889;77;20933;-76
2022/09/14 04:35:20;;;;;;;10.78;6.47;;;;;;;9.02;100.00;98577.77;1836044;76;21019;-77
2022/09/14 04:37:47;;;;;;;8.73;6.42;;;;;;;9.04;100.00;98567.30;1772033;78;21134;-82
2022/09/14 04:40:13;;;;;;;12.37;6.20;;;;;;;9.06;100.00;98565.03;1789334;79;21422;-89
2022/09/14 04:42:40;;;;;;;8.03;6.70;;;;;;;9.09;100.00;98564.38;1804990;78;21011;-90
2022/09/14 04:45:08;;;;;;;9.93;6.30;;;;;;;9.14;100.00;98568.30;1777537;80;21048;-87
2022/09/14 04:47:35;;;;;;;8.90;6.15;;;;;;;9.22;100.00;98563.34;1784351;78;20958;-89
2022/09/14 04:50:02;;;;;;;12.15;6.20;;;;;;;9.32;100.00;98561.33;1801612;79;21171;-90
2022/09/14 04:52:28;;;;;;;8.50;6.62;;;;;;;9.41;100.00;98564.25;1791226;79;20915;-87
2022/09/14 04:54:55;;;;;;;12.90;6.97;;;;;;;9.53;100.00;98558.86;1779548;79;20931;-81
2022/09/14 04:57:21;;;;;;;8.85;6.33;;;;;;;9.64;100.00;98562.02;1828645;77;20946;-82
2022/09/14 04:59:48;;;;;;;8.03;5.72;;;;;;;9.77;100.00;98560.95;1841891;77;21018;-82
2022/09/14 05:02:14;;;;;;;6.37;5.08;;;;;;;9.93;100.00;98569.34;1842330;77;21061;-80
2022/09/14 05:04:41;;;;;;;6.30;5.05;;;;;;;10.08;100.00;98570.11;1845078;77;21426;-84
2022/09/14 05:07:10;;;;;;;8.20;5.70;;;;;;;10.22;100.00;98573.97;1845342;76;21019;-75
2022/09/14 05:09:38;;;;;;;12.23;5.37;;;;;;;10.35;100.00;98568.77;1833680;77;20907;-74
2022/09/14 05:12:07;;;;;;;5.70;5.00;;;;;;;10.44;100.00;98573.57;1843384;77;20954;-82
2022/09/14 05:14:33;;;;;;;12.03;4.85;;;;;;;10.49;100.00;98576.11;1843620;77;22143;-80
2022/09/14 05:17:01;;;;;;;8.75;4.83;;;;;;;10.50;100.00;98570.85;1841966;76;21066;-79
2022/09/14 05:19:28;;;;;;;12.85;4.58;;;;;;;10.53;100.00;98564.69;1843014;77;20942;-80
2022/09/14 05:21:55;;;;;;;6.60;4.58;;;;;;;10.59;100.00;98560.59;1813733;77;20986;-78
2022/09/14 05:24:22;;;;;;;9.88;4.50;;;;;;;10.64;100.00;98563.69;1813093;77;20882;-78
2022/09/14 05:26:52;;;;;;;11.22;4.47;;;;;;;10.68;100.00;98561.06;1810109;78;21223;-79
2022/09/14 05:29:19;;;;;;;6.47;4.22;;;;;;;10.68;100.00;98568.73;1809229;78;20903;-89
2022/09/14 05:31:46;;;;;;;8.20;5.37;;;;;;;10.69;100.00;98566.21;1811279;78;20943;-81
2022/09/14 05:34:15;;;;;;;5.00;4.30;;;;;;;10.71;100.00;98557.06;1812764;77;21486;-85
2022/09/14 05:36:43;;;;;;;8.68;4.55;;;;;;;10.77;100.00;98556.28;1804439;77;21086;-85
2022/09/14 05:39:10;;;;;;;10.55;4.55;;;;;;;10.84;100.00;98545.53;1811876;77;21134;-81
2022/09/14 05:41:40;;;;;;;5.75;4.28;;;;;;;10.88;100.00;98549.20;1823139;77;20960;-78
2022/09/14 05:44:10;;;;;;;7.72;4.05;;;;;;;10.92;100.00;98548.75;1792894;78;20934;-89
2022/09/14 05:46:43;;;;;;;8.58;4.30;;;;;;;10.96;100.00;98547.50;1808649;78;21030;-82
2022/09/14 05:49:13;;;;;;;9.18;5.05;;;;;;;11.00;100.00;98550.55;1797722;77;21018;-77
2022/09/14 05:51:46;;;;;;;5.28;4.03;;;;;;;11.04;100.00;98545.98;1782029;78;21264;-75
2022/09/14 05:54:19;;;;;;;6.85;4.05;;;;;;;11.09;100.00;98560.86;1791132;78;20998;-78
2022/09/14 05:56:47;;;;;;;7.22;3.62;;;;;;;11.12;100.00;98558.00;1754334;80;21510;-80
2022/09/14 05:59:15;;;;;;;7.80;3.95;;;;;;;11.10;100.00;98551.48;1783633;78;20982;-81
2022/09/14 06:01:44;;;;;;;7.00;3.50;;;;;;;11.10;100.00;98547.36;1786680;78;21108;-83
2022/09/14 06:04:11;;;;;;;4.50;3.70;;;;;;;11.15;100.00;98544.38;1794779;77;21096;-82
2022/09/14 06:06:40;;;;;;;4.83;3.60;;;;;;;11.26;100.00;98543.35;1823579;77;21399;-84
2022/09/14 06:09:09;;;;;;;12.37;4.72;;;;;;;11.33;100.00;98533.96;1819974;77;20839;-85
2022/09/14 06:11:38;;;;;;;6.28;3.90;;;;;;;11.39;100.00;98537.28;1839420;77;21066;-79
2022/09/14 06:14:10;;;;;;;7.80;3.47;;;;;;;11.45;100.00;98534.52;1809561;77;20895;-75
2022/09/14 06:16:38;;;;;;;11.45;3.75;;;;;;;11.58;100.00;98541.58;1814583;77;21929;-79
2022/09/14 06:19:06;;;;;;;4.35;3.47;;;;;;;11.65;100.00;98536.29;1823925;77;20958;-78
2022/09/14 06:21:35;;;;;;;4.00;3.50;;;;;;;11.74;100.00;98540.28;1822327;77;20919;-81
2022/09/14 06:24:02;;;;;;;7.37;4.00;;;;;;;11.78;100.00;98535.72;1785502;78;20841;-77
2022/09/14 06:26:29;;;;;;;6.75;4.37;;;;;;;11.83;100.00;98526.66;1801122;78;21051;-78
2022/09/14 06:28:56;;;;;;;5.20;3.35;;;;;;;11.95;100.00;98534.64;1824330;77;21823;-78
2022/09/14 06:31:24;;;;;;;7.67;3.67;;;;;;;12.07;100.00;98533.22;1826999;77;20927;-71
2022/09/14 06:33:50;;;;;;;5.97;3.55;;;;;;;12.20;100.00;98535.55;1842400;77;20860;-73
2022/09/14 06:36:21;;;;;;;4.30;3.22;;;;;;;12.36;100.00;98538.34;1827852;77;21479;-72
2022/09/14 06:38:48;;;;;;;9.30;4.40;;;;;;;12.46;100.00;98539.21;1740836;80;21070;-70
2022/09/14 06:41:18;;;;;;;3.42;2.62;;;;;;;12.54;100.00;98549.27;1803474;79;21014;-70
2022/09/14 06:43:44;;;;;;;5.33;3.10;;;;;;;12.63;100.00;98542.79;1799129;77;20885;-76
2022/09/14 06:46:18;;;;;;;4.87;4.08;;;;;;;12.71;100.00;98537.09;1804789;79;21513;-70
2022/09/14 06:48:52;;;;;;;10.13;4.78;;;;;;;12.81;100.00;98537.94;1794995;79;20932;-71
2022/09/14 06:51:22;;;;;;;6.65;4.03;;;;;;;12.89;100.00;98531.45;1776516;79;21052;-73
2022/09/14 06:53:49;;;;;;;4.78;3.22;;;;;;;12.97;100.00;98529.68;1800827;77;21764;-76
2022/09/14 06:56:16;;;;;;;5.35;3.58;;;;;;;13.02;100.00;98528.61;1802529;77;21065;-76
2022/09/14 06:58:44;;;;;;;4.22;3.05;;;;;;;13.09;100.00;98525.45;1799932;77;20947;-75
2022/09/14 07:01:13;;;;;;;4.55;3.12;;;;;;;13.29;100.00;98531.04;1834867;77;20940;-74
2022/09/14 07:03:42;;;;;;;5.12;3.45;;;;;;;13.50;100.00;98532.91;1827643;77;20859;-73
2022/09/14 07:06:14;;;;;;;7.30;3.15;;;;;;;13.68;100.00;98536.88;1804682;77;21708;-78
2022/09/14 07:08:41;;;;;;;5.85;2.90;;;;;;;13.76;100.00;98529.55;1801395;78;21037;-81
2022/09/14 07:11:09;;;;;;;3.75;2.58;;;;;;;13.77;100.00;98528.39;1831420;77;20978;-77
2022/09/14 07:13:36;;;;;;;4.08;3.17;;;;;;;13.71;100.00;98525.12;1843875;77;20992;-73
2022/09/14 07:16:04;;;;;;;7.08;3.92;;;;;;;13.75;100.00;98519.09;1826562;77;21410;-78
2022/09/14 07:18:34;;;;;;;4.78;3.30;;;;;;;13.84;100.00;98509.23;1792446;79;21133;-74
2022/09/14 07:21:08;;;;;;;;;;;;;;;13.86;100.00;98511.05;1787602;79;21031;-79
2022/09/14 07:23:37;;;;;;;4.07;3.33;;;;;;;13.87;100.00;98506.52;1804857;79;20130;-76
2022/09/14 07:26:10;;;;;;;3.12;2.70;;;;;;;13.94;100.00;98514.14;1795162;79;20848;-73
2022/09/14 07:28:38;;;;;;;4.67;3.00;;;;;;;14.02;100.00;98502.67;1782038;79;20927;-80
2022/09/14 07:31:20;;;;;;;3.95;3.00;;;;;;;14.16;100.00;98508.48;1754783;80;21142;-74
2022/09/14 07:33:47;;;;;;;5.45;2.87;;;;;;;14.32;100.00;98502.88;1767253;79;20954;-73
2022/09/14 07:36:14;;;;;;;2.70;2.40;;;;;;;14.57;97.75;98499.20;1784564;79;20883;-72
2022/09/14 07:38:41;;;;;;;5.15;2.60;;;;;;;14.86;96.14;98486.89;1784659;79;20987;-74
2022/09/14 07:41:09;;;;;;;5.62;3.25;;;;;;;15.28;93.29;98492.06;1796576;79;20969;-73
2022/09/14 07:43:36;;;;;;;3.75;2.80;;;;;;;15.69;89.80;98494.43;1788515;79;21699;-73
2022/09/14 07:46:03;;;;;;;4.05;3.40;;;;;;;16.08;86.17;98493.55;1799302;79;20972;-75
2022/09/14 07:48:32;;;;;;;5.47;3.45;;;;;;;16.48;82.61;98489.42;1816035;77;21057;-73
2022/09/14 07:51:04;;;;;;;4.12;2.87;;;;;;;16.67;78.93;98494.00;1842714;77;20938;-72
2022/09/14 07:53:31;;;;;;;3.90;2.10;;;;;;;16.71;81.61;98496.80;1842503;77;20966;-74
2022/09/14 07:56:00;;;;;;;2.15;1.90;;;;;;;16.88;78.78;98489.20;1831112;77;20999;-74
2022/09/14 07:58:29;;;;;;;4.62;2.12;;;;;;;16.93;77.73;98499.94;1823472;77;20958;-74
2022/09/14 08:01:01;;;;;;;6.33;2.30;;;;;;;16.86;76.77;98497.11;1808963;77;21663;-76
2022/09/14 08:03:31;;;;;;;4.63;2.03;;;;;;;16.65;76.80;98494.97;1808426;77;21454;-74
2022/09/14 08:06:04;;;;;;;3.98;2.55;;;;;;;16.38;78.18;98490.11;1794488;78;21439;-74
2022/09/14 08:08:32;;;;;;;7.55;3.35;;;;;;;16.17;79.70;98496.20;1782823;78;21828;-87
2022/09/14 08:11:24;;;;;;;4.40;2.70;;;;;;;15.99;79.55;98495.81;1788724;78;21018;-78
2022/09/14 08:13:53;;;;;;;4.78;2.67;;;;;;;15.72;82.31;98490.33;1787839;78;21698;-86
2022/09/14 08:16:20;;;;;;;5.00;1.92;;;;;;;15.72;82.31;98490.33;1800134;78;20936;-76
2022/09/14 08:18:47;;;;;;;3.25;2.08;;;;;;;15.72;81.49;98486.18;1777804;78;20987;-73
2022/09/14 08:21:15;;;;;;;3.60;2.27;;;;;;;15.75;80.73;98486.81;1792047;78;22072;-74
2022/09/14 08:23:45;;;;;;;6.20;2.67;;;;;;;15.82;80.12;98489.67;1825125;76;21010;-73
2022/09/14 08:26:14;;;;;;;2.42;2.22;;;;;;;15.88;79.25;98487.96;1834909;77;21002;-73
2022/09/14 08:28:42;;;;;;;3.35;2.12;;;;;;;15.91;79.20;98481.09;1831045;77;20862;-71
2022/09/14 08:31:13;;;;;;;2.72;2.12;;;;;;;15.97;79.57;98485.70;1814551;76;21028;-73
2022/09/14 08:33:45;;;;;;;2.35;1.82;;;;;;;16.10;78.28;98475.97;1832414;76;21604;-73
2022/09/14 08:36:15;;;;;;;2.22;2.02;;;;;;;16.20;75.84;98487.73;1825171;77;21543;-73
2022/09/14 08:38:41;;;;;;;5.47;2.35;;;;;;;16.12;76.31;98483.31;1817728;77;21010;-73
2022/09/14 08:41:19;;;;;;;5.15;2.72;;;;;;;16.01;76.80;98476.27;1823871;77;21509;-73
2022/09/14 08:43:45;;;;;;;4.03;2.52;;;;;;;15.96;76.61;98473.83;1821244;77;21070;-72
2022/09/14 08:46:29;;;;;;;6.35;2.60;;;;;;;15.91;76.69;98474.75;1830416;77;21153;-71
2022/09/14 08:48:55;;;;;;;3.83;2.65;;;;;;;15.91;77.48;98466.45;1821664;77;21034;-77
2022/09/14 08:51:22;;;;;;;5.12;2.42;;;;;;;16.06;78.68;98460.70;1797703;77;22219;-76
2022/09/14 08:53:51;;;;;;;7.47;2.67;;;;;;;16.45;77.09;98454.77;1818598;76;21038;-77
2022/09/14 08:56:24;;;;;;;6.00;2.70;;;;;;;16.78;76.34;98464.38;1826481;76;20993;-75
2022/09/14 08:59:22;;;;;;;3.50;2.40;;;;;;;17.11;75.18;98464.05;1823149;76;22121;-77
2022/09/14 09:02:06;;;;;;;4.42;2.87;;;;;;;17.25;73.41;98460.58;1828217;77;21484;-76
2022/09/14 09:04:47;;;;;;;5.00;2.87;;;;;;;17.10;73.28;98457.70;1822512;77;20979;-79
2022/09/14 09:07:28;;;;;;;7.08;3.25;;;;;;;16.81;73.65;98456.69;1834780;77;21073;-78
2022/09/14 09:09:57;;;;;;;6.58;3.75;;;;;;;16.55;74.96;98457.43;1803182;78;21563;-75
2022/09/14 09:12:38;;;;;;;4.17;3.15;;;;;;;16.37;76.24;98458.63;1787629;79;21551;-73
2022/09/14 09:15:21;;;;;;;4.45;3.27;;;;;;;16.22;77.31;98463.81;1797643;77;21403;-76
2022/09/14 09:17:52;;;;;;;9.05;3.70;;;;;;;16.09;78.76;98470.23;1798349;79;20991;-75
2022/09/14 09:20:23;;;;;;;5.60;3.70;;;;;;;16.05;80.33;98470.19;1797268;78;21539;-77
2022/09/14 09:23:13;;;;;;;6.62;3.70;;;;;;;16.11;80.61;98470.06;1809165;77;21511;-77
2022/09/14 09:26:05;;;;;;;5.55;3.90;;;;;;;16.11;79.80;98476.98;1798555;77;21134;-78
2022/09/14 09:28:32;;;;;;;4.97;3.75;;;;;;;16.07;80.03;98469.22;1799591;77;21114;-77
2022/09/14 09:31:06;;;;;;;6.42;3.90;;;;;;;16.03;80.61;98464.81;1825327;77;20988;-78
2022/09/14 09:33:37;;;;;;;3.90;3.52;;;;;;;16.03;81.79;98471.73;1833432;77;21010;-74
2022/09/14 09:36:12;;;;;;;2.73;2.53;;;;;;;16.07;82.60;98464.27;1835770;77;20928;-73
2022/09/14 09:38:39;;;;;;;5.92;3.62;;;;;;;16.06;82.77;98463.48;1828985;77;21226;-76
2022/09/14 09:41:25;;;;;;;5.00;3.50;;;;;;;16.07;83.14;98455.97;1809318;77;21603;-72
2022/09/14 09:44:08;;;;;;;5.78;3.80;;;;;;;16.07;83.27;98451.23;1825349;77;20950;-72
2022/09/14 09:46:37;;;;;;;7.25;3.72;;;;;;;16.19;85.42;98452.32;1822093;77;20944;-73
2022/09/14 09:49:18;;;;;;;6.53;3.33;;;;;;;16.44;85.08;98444.86;1830335;77;21073;-75
2022/09/14 09:51:45;;;;;;;11.57;4.47;;;;;;;16.62;84.87;98441.67;1796781;77;21242;-77
2022/09/14 09:54:20;;;;;;;4.75;3.10;;;;;;;16.72;83.46;98448.52;1827811;77;21500;-73
2022/09/14 09:56:58;;;;;;;7.58;4.47;;;;;;;16.71;84.77;98435.84;1817366;77;21600;-78
2022/09/14 09:59:41;;;;;;;6.62;4.35;;;;;;;16.70;84.74;98440.58;1834674;77;20920;-81
2022/09/14 10:02:29;;;;;;;6.10;3.90;;;;;;;16.66;84.12;98433.42;1818429;77;21121;-83
2022/09/14 10:05:07;;;;;;;5.97;4.00;;;;;;;16.55;84.42;98442.98;1830479;77;21041;-83
2022/09/14 10:07:49;;;;;;;4.80;4.17;;;;;;;16.37;86.11;98442.02;1817966;77;20975;-86
2022/09/14 10:10:20;;;;;;;8.50;5.58;;;;;;;16.24;87.71;98436.55;1780301;77;21074;-79
2022/09/14 10:12:53;;;;;;;5.37;4.45;;;;;;;16.13;89.22;98434.48;1828290;77;20963;-76
2022/09/14 10:15:27;;;;;;;8.55;4.80;;;;;;;15.96;91.84;98434.29;1826551;77;20986;-73
2022/09/14 10:18:09;;;;;;;7.37;5.25;;;;;;;15.84;94.72;98440.28;1833698;76;21252;-76
2022/09/14 10:20:53;;;;;;;14.10;5.23;;;;;;;15.75;96.68;98442.54;1832283;77;21586;-75
2022/09/14 10:23:24;;;;;;;12.15;5.37;;;;;;;15.65;97.37;98446.55;1817144;76;20945;-77
2022/09/14 10:26:15;;;;;;;10.70;5.55;;;;;;;15.42;98.22;98441.11;1836579;76;20920;-72
2022/09/14 10:28:47;;;;;;;10.25;5.20;;;;;;;15.17;99.91;98440.75;1812021;76;20973;-79
2022/09/14 10:31:25;;;;;;;10.32;6.20;;;;;;;14.89;100.00;98441.15;1824272;77;25119;-73
2022/09/14 10:33:57;;;;;;;5.80;5.03;;;;;;;14.73;100.00;98437.14;1815495;78;21847;-77
2022/09/14 10:36:36;;;;;;;9.75;4.95;;;;;;;14.71;100.00;98437.30;1833194;77;20915;-78
2022/09/14 10:39:26;;;;;;;6.30;5.33;;;;;;;14.75;100.00;98439.53;1824674;77;21513;-77
2022/09/14 10:42:01;;;;;;;8.28;5.00;;;;;;;14.78;100.00;98434.66;1798582;77;20968;-80
2022/09/14 10:45:02;;;;;;;9.08;6.00;;;;;;;14.78;100.00;98434.07;1826570;76;21087;-76
2022/09/14 10:48:11;;;;;;;7.67;5.87;;;;;;;14.74;100.00;98431.83;1830303;77;20899;-77
2022/09/14 10:51:07;;;;;;;8.58;5.20;;;;;;;14.76;100.00;98428.70;1833630;76;20939;-82
2022/09/14 10:53:46;;;;;;;11.20;5.35;;;;;;;14.97;100.00;98426.86;1799599;78;20943;-77
2022/09/14 10:56:50;;;;;;;8.80;5.47;;;;;;;15.23;100.00;98424.06;1825941;77;20907;-74
2022/09/14 10:59:34;;;;;;;12.88;5.70;;;;;;;15.39;100.00;98419.73;1824816;77;21114;-84
2022/09/14 11:02:12;;;;;;;7.22;4.90;;;;;;;15.50;100.00;98417.91;1812864;77;21513;-76
2022/09/14 11:05:22;;;;;;;5.35;4.50;;;;;;;15.76;100.00;98425.35;1799274;79;20978;-76
2022/09/14 11:08:16;;;;;;;8.60;4.55;;;;;;;16.23;100.00;98419.72;1772504;79;20982;-76
2022/09/14 11:11:04;;;;;;;11.73;5.67;;;;;;;16.69;100.00;98409.09;1778796;78;20966;-75
2022/09/14 11:14:18;;;;;;;7.85;5.10;;;;;;;17.00;99.45;98416.03;1842773;77;21062;-75
2022/09/14 11:17:23;;;;;;;7.28;4.62;;;;;;;17.24;94.27;98416.80;1836281;77;20959;-73
2022/09/14 11:20:25;;;;;;;5.80;4.75;;;;;;;17.33;93.40;98415.06;1788693;78;20912;-72
2022/09/14 11:23:27;;;;;;;8.85;4.65;;;;;;;17.47;92.21;98416.50;1809062;77;21034;-78
2022/09/14 11:26:20;;;;;;;8.60;4.65;;;;;;;17.77;90.88;98401.80;1803121;77;20929;-78
2022/09/14 11:28:51;;;;;;;5.12;4.42;;;;;;;17.91;88.79;98406.58;1841744;77;21184;-80
2022/09/14 11:31:30;;;;;;;6.50;4.63;;;;;;;17.65;87.40;98410.47;1827890;77;20979;-76
2022/09/14 11:34:12;;;;;;;5.67;4.70;;;;;;;17.36;88.94;98410.09;1828857;77;20919;-81
2022/09/14 11:36:44;;;;;;;9.90;5.37;;;;;;;17.05;90.26;98416.47;1826948;77;20844;-81
2022/09/14 11:39:22;;;;;;;8.73;5.17;;;;;;;16.83;92.54;98412.75;1820519;77;20908;-79
2022/09/14 11:42:03;;;;;;;8.08;5.80;;;;;;;16.73;94.40;98414.08;1822587;77;21185;-81
2022/09/14 11:44:37;;;;;;;7.03;5.20;;;;;;;16.68;94.50;98417.20;1813909;77;21525;-82
2022/09/14 11:47:19;;;;;;;6.87;5.75;;;;;;;16.63;94.83;98406.45;1813178;77;20911;-83
2022/09/14 11:50:04;;;;;;;10.65;5.45;;;;;;;16.67;96.54;98402.55;1815792;77;21124;-80
2022/09/14 11:52:32;;;;;;;9.30;5.80;;;;;;;16.84;96.51;98394.94;1823598;77;20831;-82
2022/09/14 11:55:00;;;;;;;8.25;5.17;;;;;;;17.02;95.37;98393.67;1818451;77;21017;-82